createdAt,value
2022-08-31T00:00:31.939Z,95.20
2022-08-31T00:03:17.449Z,95.50
2022-08-31T00:05:45.162Z,95.50
2022-08-31T00:08:12.244Z,95.60
2022-08-31T00:10:43.289Z,95.60
2022-08-31T00:13:12.266Z,95.80
2022-08-31T00:15:39.425Z,96.00
2022-08-31T00:18:07.200Z,96.30
2022-08-31T00:20:34.957Z,96.60
2022-08-31T00:23:04.749Z,97.30
2022-08-31T00:25:33.690Z,97.50
2022-08-31T00:28:00.669Z,97.90
2022-08-31T00:30:29.705Z,98.20
2022-08-31T00:32:57.070Z,98.60
2022-08-31T00:35:27.292Z,98.70
2022-08-31T00:37:54.466Z,98.70
2022-08-31T00:40:22.082Z,98.80
2022-08-31T00:42:49.027Z,99.40
2022-08-31T00:45:16.209Z,99.50
2022-08-31T00:47:43.143Z,99.60
2022-08-31T00:50:13.239Z,99.90
2022-08-31T00:52:42.828Z,99.90
2022-08-31T00:55:11.788Z,99.90
2022-08-31T00:57:41.604Z,99.90
2022-08-31T01:00:14.023Z,99.50
2022-08-31T01:02:41.769Z,99.90
2022-08-31T01:05:09.788Z,99.80
2022-08-31T01:07:38.240Z,99.80
2022-08-31T01:10:06.126Z,99.90
2022-08-31T01:12:33.050Z,99.90
2022-08-31T01:15:02.617Z,99.90
2022-08-31T01:17:32.027Z,99.90
2022-08-31T01:20:10.684Z,99.90
2022-08-31T01:22:47.526Z,99.90
2022-08-31T01:25:15.283Z,99.90
2022-08-31T01:27:42.555Z,99.90
2022-08-31T01:30:11.733Z,99.90
2022-08-31T01:32:40.347Z,99.90
2022-08-31T01:35:07.923Z,99.90
2022-08-31T01:37:39.158Z,99.90
2022-08-31T01:40:07.064Z,99.90
2022-08-31T01:42:34.575Z,99.90
2022-08-31T01:45:02.427Z,99.90
2022-08-31T01:47:29.317Z,99.90
2022-08-31T01:49:57.524Z,99.90
2022-08-31T01:52:27.815Z,99.90
2022-08-31T01:54:56.072Z,99.90
2022-08-31T01:57:33.301Z,99.90
2022-08-31T02:00:34.430Z,99.90
2022-08-31T02:03:07.821Z,99.90
2022-08-31T02:05:36.188Z,99.90
2022-08-31T02:08:05.152Z,99.90
2022-08-31T02:10:32.204Z,99.90
2022-08-31T02:12:59.186Z,99.90
2022-08-31T02:15:38.017Z,99.90
2022-08-31T02:18:05.727Z,99.90
2022-08-31T02:20:32.623Z,99.90
2022-08-31T02:23:03.559Z,99.90
2022-08-31T02:25:31.006Z,99.90
2022-08-31T02:27:59.420Z,99.90
2022-08-31T02:30:26.555Z,99.90
2022-08-31T02:32:53.508Z,99.90
2022-08-31T02:35:20.563Z,99.90
2022-08-31T02:37:48.238Z,99.90
2022-08-31T02:40:15.920Z,99.90
2022-08-31T02:42:52.872Z,99.90
2022-08-31T02:45:24.515Z,99.90
2022-08-31T02:47:52.201Z,99.90
2022-08-31T02:50:30.938Z,99.90
2022-08-31T02:52:58.831Z,99.90
2022-08-31T02:55:28.276Z,99.90
2022-08-31T02:57:55.364Z,99.90
2022-08-31T03:00:24.422Z,99.90
2022-08-31T03:02:51.378Z,99.90
2022-08-31T03:05:19.410Z,99.90
2022-08-31T03:07:46.531Z,99.90
2022-08-31T03:10:14.996Z,99.90
2022-08-31T03:12:43.543Z,99.90
2022-08-31T03:15:11.508Z,99.90
2022-08-31T03:17:38.460Z,99.90
2022-08-31T03:20:08.784Z,99.90
2022-08-31T03:22:35.748Z,99.90
2022-08-31T03:25:05.363Z,99.90
2022-08-31T03:27:32.502Z,99.90
2022-08-31T03:30:00.333Z,99.90
2022-08-31T03:32:30.999Z,99.90
2022-08-31T03:34:59.995Z,99.90
2022-08-31T03:37:27.664Z,99.90
2022-08-31T03:39:59.040Z,99.90
2022-08-31T03:42:27.607Z,99.90
2022-08-31T03:44:55.934Z,99.90
2022-08-31T03:47:28.585Z,99.90
2022-08-31T03:49:56.218Z,99.90
2022-08-31T03:52:27.332Z,99.90
2022-08-31T03:55:01.551Z,99.90
2022-08-31T03:57:29.422Z,99.90
2022-08-31T03:59:57.626Z,99.90
2022-08-31T04:02:44.008Z,99.90
2022-08-31T04:05:27.344Z,99.90
2022-08-31T04:08:12.963Z,99.90
2022-08-31T04:10:50.428Z,99.90
2022-08-31T04:13:20.203Z,99.90
2022-08-31T04:16:09.123Z,99.90
2022-08-31T04:18:59.976Z,99.90
2022-08-31T04:21:31.039Z,99.90
2022-08-31T04:23:59.393Z,99.90
2022-08-31T04:26:32.107Z,99.90
2022-08-31T04:29:01.507Z,99.90
2022-08-31T04:31:29.053Z,99.90
2022-08-31T04:33:56.985Z,99.90
2022-08-31T04:36:27.795Z,99.90
2022-08-31T04:38:58.112Z,99.90
2022-08-31T04:41:27.403Z,99.90
2022-08-31T04:43:56.619Z,99.90
2022-08-31T04:46:25.809Z,99.90
2022-08-31T04:48:54.651Z,99.90
2022-08-31T04:51:27.203Z,99.90
2022-08-31T04:53:55.364Z,99.90
2022-08-31T04:56:27.233Z,99.90
2022-08-31T04:59:04.119Z,99.90
2022-08-31T05:01:43.346Z,99.90
2022-08-31T05:04:48.954Z,99.90
2022-08-31T05:07:16.853Z,99.90
2022-08-31T05:09:44.115Z,99.90
2022-08-31T05:12:10.937Z,99.90
2022-08-31T05:14:39.238Z,99.90
2022-08-31T05:17:16.623Z,99.90
2022-08-31T05:19:44.269Z,99.90
2022-08-31T05:22:14.395Z,99.90
2022-08-31T05:24:43.714Z,99.90
2022-08-31T05:27:12.871Z,99.90
2022-08-31T05:29:42.126Z,99.90
2022-08-31T05:32:29.450Z,99.90
2022-08-31T05:34:58.874Z,99.90
2022-08-31T05:37:27.042Z,99.90
2022-08-31T05:39:54.530Z,99.90
2022-08-31T05:42:21.617Z,99.90
2022-08-31T05:44:49.519Z,99.90
2022-08-31T05:47:17.023Z,99.90
2022-08-31T05:49:44.722Z,99.90
2022-08-31T05:52:16.032Z,99.90
2022-08-31T05:54:43.697Z,99.90
2022-08-31T05:57:10.598Z,99.90
2022-08-31T05:59:39.527Z,99.90
2022-08-31T06:02:10.978Z,99.90
2022-08-31T06:04:39.033Z,99.90
2022-08-31T06:07:06.080Z,99.90
2022-08-31T06:09:42.894Z,99.90
2022-08-31T06:12:11.079Z,99.90
2022-08-31T06:14:44.751Z,99.90
2022-08-31T06:17:13.176Z,99.80
2022-08-31T06:19:40.094Z,99.20
2022-08-31T06:22:07.210Z,98.70
2022-08-31T06:24:34.286Z,98.20
2022-08-31T06:27:01.750Z,97.60
2022-08-31T06:29:31.830Z,96.90
2022-08-31T06:32:00.821Z,96.50
2022-08-31T06:34:29.507Z,95.90
2022-08-31T06:37:06.936Z,95.40
2022-08-31T06:39:53.756Z,95.10
2022-08-31T06:42:46.609Z,95.10
2022-08-31T06:45:47.224Z,94.90
2022-08-31T06:48:32.661Z,94.70
2022-08-31T06:50:59.649Z,94.20
2022-08-31T06:53:29.868Z,94.40
2022-08-31T06:56:20.236Z,94.20
2022-08-31T06:59:08.174Z,94.50
2022-08-31T07:01:53.665Z,94.70
2022-08-31T07:04:36.549Z,94.50
2022-08-31T07:07:06.058Z,94.30
2022-08-31T07:09:35.698Z,93.90
2022-08-31T07:12:04.441Z,93.90
2022-08-31T07:14:31.753Z,93.90
2022-08-31T07:16:59.833Z,93.40
2022-08-31T07:19:26.882Z,93.80
2022-08-31T07:21:57.945Z,93.20
2022-08-31T07:24:30.396Z,92.90
2022-08-31T07:27:04.601Z,93.00
2022-08-31T07:30:00.272Z,92.80
2022-08-31T07:32:30.440Z,93.00
2022-08-31T07:35:00.735Z,92.50
2022-08-31T07:37:49.918Z,92.50
2022-08-31T07:40:37.420Z,91.80
2022-08-31T07:43:10.433Z,92.00
2022-08-31T07:45:39.322Z,91.70
2022-08-31T07:48:07.166Z,91.70
2022-08-31T07:50:54.387Z,91.00
2022-08-31T07:53:47.698Z,90.90
2022-08-31T07:56:26.327Z,90.20
2022-08-31T07:59:08.199Z,90.30
2022-08-31T08:01:41.495Z,90.00
2022-08-31T08:04:13.294Z,89.30
2022-08-31T08:07:00.834Z,88.10
2022-08-31T08:09:44.086Z,89.30
2022-08-31T08:12:22.474Z,89.10
2022-08-31T08:15:19.106Z,86.00
2022-08-31T08:18:13.446Z,85.40
2022-08-31T08:20:48.102Z,83.90
2022-08-31T08:23:18.174Z,83.60
2022-08-31T08:26:21.969Z,82.20
2022-08-31T08:29:14.704Z,80.10
2022-08-31T08:31:46.230Z,78.90
2022-08-31T08:34:13.334Z,79.70
2022-08-31T08:36:40.758Z,79.10
2022-08-31T08:39:09.606Z,78.40
2022-08-31T08:41:42.879Z,75.90
2022-08-31T08:44:18.055Z,73.50
2022-08-31T08:46:50.171Z,72.50
2022-08-31T08:49:20.934Z,73.10
2022-08-31T08:51:58.134Z,70.30
2022-08-31T08:54:38.848Z,73.10
2022-08-31T08:57:14.764Z,73.10
2022-08-31T08:59:49.143Z,71.00
2022-08-31T09:02:22.129Z,65.40
2022-08-31T09:04:59.683Z,69.50
2022-08-31T09:08:16.180Z,72.40
2022-08-31T09:10:45.695Z,71.00
2022-08-31T09:13:31.822Z,66.70
2022-08-31T09:16:28.455Z,64.10
2022-08-31T09:19:07.231Z,64.30
2022-08-31T09:21:56.489Z,62.00
2022-08-31T09:24:30.299Z,61.50
2022-08-31T09:27:18.631Z,61.90
2022-08-31T09:29:52.462Z,61.10
2022-08-31T09:32:29.063Z,61.00
2022-08-31T09:35:01.679Z,62.20
2022-08-31T09:37:38.228Z,62.00
2022-08-31T09:40:24.307Z,60.10
2022-08-31T09:43:08.332Z,59.60
2022-08-31T09:45:54.925Z,59.20
2022-08-31T09:48:56.443Z,60.40
2022-08-31T09:51:36.087Z,60.00
2022-08-31T09:54:24.712Z,58.00
2022-08-31T09:56:59.244Z,57.50
2022-08-31T09:59:40.165Z,58.40
2022-08-31T10:02:33.567Z,58.50
2022-08-31T10:05:06.357Z,58.20
2022-08-31T10:07:56.651Z,61.20
2022-08-31T10:10:31.405Z,58.80
2022-08-31T10:13:18.179Z,59.00
2022-08-31T10:16:00.111Z,57.50
2022-08-31T10:18:39.502Z,57.00
2022-08-31T10:21:12.430Z,57.60
2022-08-31T10:23:56.746Z,57.10
2022-08-31T10:26:36.064Z,56.90
2022-08-31T10:29:15.697Z,58.20
2022-08-31T10:31:53.780Z,58.20
2022-08-31T10:34:52.584Z,58.70
2022-08-31T10:37:31.589Z,59.10
2022-08-31T10:40:23.249Z,59.10
2022-08-31T10:43:09.372Z,58.60
2022-08-31T10:45:46.052Z,58.80
2022-08-31T10:48:13.298Z,59.20
2022-08-31T10:50:45.215Z,58.80
2022-08-31T10:53:40.344Z,58.90
2022-08-31T10:56:16.315Z,59.80
2022-08-31T10:58:45.930Z,58.70
2022-08-31T11:01:40.171Z,58.00
2022-08-31T11:04:42.924Z,57.70
2022-08-31T11:07:15.955Z,57.40
2022-08-31T11:09:54.931Z,57.10
2022-08-31T11:12:39.795Z,56.60
2022-08-31T11:15:39.972Z,57.70
2022-08-31T11:18:15.833Z,56.90
2022-08-31T11:21:00.510Z,57.80
2022-08-31T11:23:57.579Z,57.80
2022-08-31T11:26:59.414Z,55.70
2022-08-31T11:29:43.222Z,55.40
2022-08-31T11:32:26.035Z,58.60
2022-08-31T11:34:56.495Z,55.80
2022-08-31T11:37:53.140Z,55.00
2022-08-31T11:40:46.909Z,53.90
2022-08-31T11:43:15.129Z,54.00
2022-08-31T11:45:43.242Z,54.80
2022-08-31T11:48:30.457Z,54.10
2022-08-31T11:51:07.245Z,54.60
2022-08-31T11:53:37.843Z,55.00
2022-08-31T11:56:06.979Z,53.70
2022-08-31T11:58:38.335Z,54.20
2022-08-31T12:01:33.898Z,53.70
2022-08-31T12:04:03.993Z,52.80
2022-08-31T12:06:50.826Z,53.00
2022-08-31T12:09:23.460Z,53.50
2022-08-31T12:11:50.356Z,52.90
2022-08-31T12:14:29.657Z,55.40
2022-08-31T12:17:22.897Z,54.60
2022-08-31T12:20:13.640Z,52.90
2022-08-31T12:23:30.632Z,53.00
2022-08-31T12:26:01.447Z,51.70
2022-08-31T12:28:59.274Z,53.80
2022-08-31T12:31:26.754Z,50.50
2022-08-31T12:34:17.041Z,51.10
2022-08-31T12:36:44.350Z,53.20
2022-08-31T12:39:20.630Z,53.60
2022-08-31T12:41:52.558Z,51.80
2022-08-31T12:44:33.596Z,52.70
2022-08-31T12:47:25.359Z,52.10
2022-08-31T12:49:52.301Z,52.90
2022-08-31T12:52:28.902Z,49.30
2022-08-31T12:55:22.581Z,47.60
2022-08-31T12:58:07.791Z,48.80
2022-08-31T13:00:39.432Z,49.70
2022-08-31T13:03:14.944Z,50.20
2022-08-31T13:05:42.213Z,48.30
2022-08-31T13:08:25.090Z,47.70
2022-08-31T13:10:52.555Z,47.60
2022-08-31T13:13:30.173Z,48.50
2022-08-31T13:16:04.719Z,49.10
2022-08-31T13:18:31.792Z,49.30
2022-08-31T13:21:06.647Z,49.10
2022-08-31T13:23:41.183Z,49.50
2022-08-31T13:26:21.206Z,49.50
2022-08-31T13:28:50.246Z,49.80
2022-08-31T13:31:26.814Z,49.70
2022-08-31T13:34:00.164Z,50.30
2022-08-31T13:36:35.114Z,50.10
2022-08-31T13:39:19.625Z,49.40
2022-08-31T13:42:06.977Z,49.80
2022-08-31T13:44:39.782Z,49.60
2022-08-31T13:47:30.219Z,49.20
2022-08-31T13:50:13.264Z,50.00
2022-08-31T13:53:22.552Z,49.90
2022-08-31T13:55:43.714Z,49.10
2022-08-31T13:58:27.299Z,48.80
2022-08-31T14:01:24.424Z,49.00
2022-08-31T14:03:59.054Z,49.20
2022-08-31T14:06:32.251Z,49.60
2022-08-31T14:09:19.193Z,48.60
2022-08-31T14:12:04.345Z,48.80
2022-08-31T14:14:41.592Z,49.10
2022-08-31T14:17:16.407Z,48.90
2022-08-31T14:19:45.116Z,49.00
2022-08-31T14:22:33.113Z,49.00
2022-08-31T14:25:00.913Z,48.50
2022-08-31T14:27:29.340Z,49.00
2022-08-31T14:29:58.261Z,49.20
2022-08-31T14:32:25.710Z,48.90
2022-08-31T14:34:53.341Z,49.10
2022-08-31T14:37:23.170Z,49.10
2022-08-31T14:39:53.685Z,49.30
2022-08-31T14:42:27.244Z,49.80
2022-08-31T14:45:08.364Z,48.40
2022-08-31T14:47:42.594Z,47.60
2022-08-31T14:50:11.668Z,47.90
2022-08-31T14:52:41.626Z,47.90
2022-08-31T14:55:11.161Z,47.50
2022-08-31T14:57:46.840Z,47.40
2022-08-31T15:00:21.990Z,47.70
2022-08-31T15:02:53.553Z,47.20
2022-08-31T15:05:23.935Z,46.00
2022-08-31T15:07:53.048Z,44.80
2022-08-31T15:10:22.903Z,45.40
2022-08-31T15:12:50.448Z,45.40
2022-08-31T15:15:20.439Z,44.20
2022-08-31T15:17:50.265Z,44.50
2022-08-31T15:20:19.655Z,43.70
2022-08-31T15:22:47.885Z,42.90
2022-08-31T15:25:15.784Z,40.70
2022-08-31T15:27:44.547Z,40.60
2022-08-31T15:30:14.715Z,40.50
2022-08-31T15:32:45.040Z,39.50
2022-08-31T15:35:18.065Z,39.90
2022-08-31T15:37:53.225Z,40.40
2022-08-31T15:40:21.635Z,41.00
2022-08-31T15:42:50.262Z,41.30
2022-08-31T15:45:17.172Z,41.70
2022-08-31T15:48:02.729Z,42.60
2022-08-31T15:50:31.802Z,43.40
2022-08-31T15:53:09.464Z,44.10
2022-08-31T15:55:40.634Z,44.30
2022-08-31T15:58:09.360Z,44.30
2022-08-31T16:00:37.298Z,44.80
2022-08-31T16:03:06.187Z,44.20
2022-08-31T16:05:39.046Z,44.40
2022-08-31T16:08:10.628Z,44.70
2022-08-31T16:10:41.957Z,44.70
2022-08-31T16:13:10.163Z,44.60
2022-08-31T16:15:38.759Z,44.80
2022-08-31T16:18:06.098Z,45.00
2022-08-31T16:20:34.665Z,44.60
2022-08-31T16:23:03.017Z,44.50
2022-08-31T16:25:47.551Z,44.90
2022-08-31T16:28:20.198Z,44.80
2022-08-31T16:30:47.662Z,44.00
2022-08-31T16:33:14.710Z,44.40
2022-08-31T16:35:41.639Z,44.80
2022-08-31T16:38:08.595Z,45.20
2022-08-31T16:40:35.747Z,44.60
2022-08-31T16:43:03.654Z,45.10
2022-08-31T16:45:30.746Z,46.30
2022-08-31T16:48:16.090Z,46.40
2022-08-31T16:50:47.648Z,45.70
2022-08-31T16:53:18.134Z,45.90
2022-08-31T16:55:47.441Z,45.70
2022-08-31T16:58:21.569Z,44.80
2022-08-31T17:01:12.672Z,44.70
2022-08-31T17:03:57.615Z,45.70
2022-08-31T17:06:27.481Z,45.80
2022-08-31T17:08:56.748Z,45.30
2022-08-31T17:11:26.633Z,45.30
2022-08-31T17:13:59.226Z,47.10
2022-08-31T17:16:31.681Z,46.20
2022-08-31T17:18:59.636Z,44.90
2022-08-31T17:21:29.040Z,44.30
2022-08-31T17:23:58.843Z,44.30
2022-08-31T17:26:31.129Z,45.30
2022-08-31T17:29:02.460Z,46.20
2022-08-31T17:31:34.872Z,44.80
2022-08-31T17:34:02.455Z,45.70
2022-08-31T17:36:35.422Z,44.80
2022-08-31T17:39:04.746Z,44.70
2022-08-31T17:41:32.311Z,45.50
2022-08-31T17:43:59.598Z,46.60
2022-08-31T17:46:30.413Z,48.20
2022-08-31T17:48:57.666Z,48.80
2022-08-31T17:51:30.552Z,49.80
2022-08-31T17:54:04.560Z,50.20
2022-08-31T17:56:35.030Z,49.20
2022-08-31T17:59:02.256Z,48.80
2022-08-31T18:01:31.948Z,51.30
2022-08-31T18:04:01.847Z,52.80
2022-08-31T18:06:29.279Z,54.00
2022-08-31T18:08:58.338Z,54.30
2022-08-31T18:11:26.131Z,53.90
2022-08-31T18:13:53.839Z,53.20
2022-08-31T18:16:21.174Z,53.40
2022-08-31T18:18:49.795Z,53.90
2022-08-31T18:21:22.135Z,54.10
2022-08-31T18:23:53.443Z,53.10
2022-08-31T18:26:24.376Z,52.80
2022-08-31T18:28:52.968Z,53.10
2022-08-31T18:31:28.179Z,53.80
2022-08-31T18:33:56.571Z,54.20
2022-08-31T18:36:25.881Z,55.10
2022-08-31T18:38:55.397Z,55.80
2022-08-31T18:41:42.747Z,56.20
2022-08-31T18:44:28.799Z,56.20
2022-08-31T18:47:00.193Z,56.40
2022-08-31T18:49:28.128Z,56.40
2022-08-31T18:51:57.196Z,57.10
2022-08-31T18:54:24.378Z,57.20
2022-08-31T18:56:51.367Z,57.80
2022-08-31T18:59:20.010Z,58.00
2022-08-31T19:01:47.160Z,58.00
2022-08-31T19:04:17.586Z,58.00
2022-08-31T19:06:46.891Z,58.20
2022-08-31T19:09:13.861Z,57.50
2022-08-31T19:11:51.711Z,58.80
2022-08-31T19:14:20.598Z,59.40
2022-08-31T19:16:51.385Z,59.50
2022-08-31T19:19:22.210Z,59.30
2022-08-31T19:21:49.798Z,59.40
2022-08-31T19:24:18.562Z,59.60
2022-08-31T19:26:49.578Z,60.20
2022-08-31T19:29:22.895Z,60.10
2022-08-31T19:31:51.057Z,60.50
2022-08-31T19:34:29.378Z,60.00
2022-08-31T19:36:57.830Z,59.90
2022-08-31T19:39:27.885Z,59.80
2022-08-31T19:41:58.430Z,60.40
2022-08-31T19:44:54.520Z,60.60
2022-08-31T19:47:25.240Z,60.60
2022-08-31T19:49:52.855Z,60.80
2022-08-31T19:52:20.483Z,61.60
2022-08-31T19:54:48.766Z,61.70
2022-08-31T19:57:16.702Z,62.60
2022-08-31T19:59:43.743Z,62.70
2022-08-31T20:02:11.321Z,63.20
2022-08-31T20:04:38.399Z,63.40
2022-08-31T20:07:06.456Z,63.90
2022-08-31T20:09:34.132Z,64.20
2022-08-31T20:12:02.095Z,64.50
2022-08-31T20:14:29.393Z,64.80
2022-08-31T20:16:59.373Z,65.50
2022-08-31T20:19:27.469Z,65.90
2022-08-31T20:22:04.326Z,65.70
2022-08-31T20:24:31.271Z,66.50
2022-08-31T20:27:09.005Z,67.00
2022-08-31T20:29:38.782Z,67.20
2022-08-31T20:32:07.840Z,68.20
2022-08-31T20:34:35.130Z,68.50
2022-08-31T20:37:02.884Z,68.90
2022-08-31T20:39:32.067Z,69.50
2022-08-31T20:42:00.536Z,69.90
2022-08-31T20:44:34.825Z,71.00
2022-08-31T20:47:25.545Z,71.10
2022-08-31T20:49:54.243Z,71.60
2022-08-31T20:52:24.824Z,71.80
2022-08-31T20:55:01.377Z,71.70
2022-08-31T20:57:31.927Z,72.00
2022-08-31T21:00:04.608Z,72.00
2022-08-31T21:02:33.265Z,72.20
2022-08-31T21:05:26.750Z,72.50
2022-08-31T21:07:48.018Z,72.50
2022-08-31T21:10:14.876Z,73.20
2022-08-31T21:12:41.760Z,72.80
2022-08-31T21:15:10.252Z,73.50
2022-08-31T21:17:40.489Z,73.50
2022-08-31T21:20:08.157Z,72.40
2022-08-31T21:22:35.153Z,73.40
2022-08-31T21:25:02.135Z,74.60
2022-08-31T21:27:29.507Z,74.30
2022-08-31T21:29:56.619Z,74.70
2022-08-31T21:32:24.495Z,74.90
2022-08-31T21:34:56.534Z,75.10
2022-08-31T21:37:23.515Z,75.20
2022-08-31T21:39:53.488Z,75.40
2022-08-31T21:42:24.251Z,76.20
2022-08-31T21:44:51.272Z,76.90
2022-08-31T21:47:18.243Z,77.90
2022-08-31T21:49:45.571Z,78.70
2022-08-31T21:52:12.601Z,80.00
2022-08-31T21:54:44.798Z,81.30
2022-08-31T21:57:12.987Z,81.60
2022-08-31T21:59:39.780Z,81.90
2022-08-31T22:02:12.650Z,82.50
2022-08-31T22:04:43.146Z,82.80
2022-08-31T22:07:14.033Z,83.40
2022-08-31T22:09:41.910Z,83.70
2022-08-31T22:12:09.789Z,84.10
2022-08-31T22:14:39.906Z,85.70
2022-08-31T22:17:07.791Z,86.80
2022-08-31T22:19:38.924Z,87.40
2022-08-31T22:22:11.695Z,87.70
2022-08-31T22:24:40.311Z,88.50
2022-08-31T22:27:09.294Z,89.30
2022-08-31T22:29:37.850Z,89.60
2022-08-31T22:32:13.816Z,90.10
2022-08-31T22:34:42.470Z,90.50
2022-08-31T22:37:09.396Z,90.80
2022-08-31T22:39:36.701Z,90.70
2022-08-31T22:42:04.987Z,90.90
2022-08-31T22:44:34.483Z,91.10
2022-08-31T22:47:01.995Z,91.20
2022-08-31T22:49:29.436Z,91.40
2022-08-31T22:51:56.947Z,91.60
2022-08-31T22:54:24.689Z,91.80
2022-08-31T22:56:52.706Z,91.90
2022-08-31T22:59:26.154Z,91.70
2022-08-31T23:01:56.076Z,92.10
2022-08-31T23:04:26.207Z,92.10
2022-08-31T23:06:55.325Z,92.40
2022-08-31T23:09:27.333Z,92.50
2022-08-31T23:11:55.925Z,92.60
2022-08-31T23:14:23.856Z,92.90
2022-08-31T23:16:59.079Z,92.90
2022-08-31T23:19:33.403Z,92.80
2022-08-31T23:22:01.571Z,92.90
2022-08-31T23:24:41.200Z,93.20
2022-08-31T23:27:10.217Z,93.20
2022-08-31T23:29:46.083Z,93.40
2022-08-31T23:32:19.290Z,93.90
2022-08-31T23:34:49.763Z,94.00
2022-08-31T23:37:17.793Z,94.30
2022-08-31T23:39:45.205Z,94.30
2022-08-31T23:42:13.916Z,94.60
2022-08-31T23:44:43.550Z,95.10
2022-08-31T23:47:22.263Z,95.00
2022-08-31T23:49:53.353Z,95.30
2022-08-31T23:52:23.284Z,95.30
2022-08-31T23:54:52.864Z,95.10
2022-08-31T23:57:32.221Z,95.20
